sensor_id;sensor_type;location;lat;lon;timestamp;P1;durP1;ratioP1;P2;durP2;ratioP2
16543;SDS011;8384;47.996;7.786;2023-02-10T00:01:38;25.65;;;23.13;;
16543;SDS011;8384;47.996;7.786;2023-02-10T00:04:04;25.63;;;23.08;;
16543;SDS011;8384;47.996;7.786;2023-02-10T00:06:30;24.63;;;22.07;;
16543;SDS011;8384;47.996;7.786;2023-02-10T00:08:56;25.70;;;23.20;;
16543;SDS011;8384;47.996;7.786;2023-02-10T00:11:24;26.60;;;23.80;;
16543;SDS011;8384;47.996;7.786;2023-02-10T00:14:09;26.40;;;23.80;;
16543;SDS011;8384;47.996;7.786;2023-02-10T00:16:34;28.73;;;25.73;;
16543;SDS011;8384;47.996;7.786;2023-02-10T00:19:00;28.47;;;25.63;;
16543;SDS011;8384;47.996;7.786;2023-02-10T00:21:25;27.63;;;24.73;;
16543;SDS011;8384;47.996;7.786;2023-02-10T00:23:51;27.38;;;24.58;;
16543;SDS011;8384;47.996;7.786;2023-02-10T00:26:16;27.70;;;24.80;;
16543;SDS011;8384;47.996;7.786;2023-02-10T00:28:41;27.20;;;24.40;;
16543;SDS011;8384;47.996;7.786;2023-02-10T00:31:07;25.03;;;22.33;;
16543;SDS011;8384;47.996;7.786;2023-02-10T00:33:34;23.45;;;21.15;;
16543;SDS011;8384;47.996;7.786;2023-02-10T00:36:02;22.73;;;20.43;;
16543;SDS011;8384;47.996;7.786;2023-02-10T00:38:31;22.23;;;19.92;;
16543;SDS011;8384;47.996;7.786;2023-02-10T00:41:01;23.03;;;20.67;;
16543;SDS011;8384;47.996;7.786;2023-02-10T00:43:33;22.37;;;20.07;;
16543;SDS011;8384;47.996;7.786;2023-02-10T00:45:59;21.95;;;19.75;;
16543;SDS011;8384;47.996;7.786;2023-02-10T00:48:24;21.33;;;19.20;;
16543;SDS011;8384;47.996;7.786;2023-02-10T00:50:50;21.77;;;19.53;;
16543;SDS011;8384;47.996;7.786;2023-02-10T00:53:15;21.87;;;19.70;;
16543;SDS011;8384;47.996;7.786;2023-02-10T00:55:40;20.03;;;18.10;;
16543;SDS011;8384;47.996;7.786;2023-02-10T00:58:05;20.25;;;18.23;;
16543;SDS011;8384;47.996;7.786;2023-02-10T01:00:31;18.92;;;17.02;;
16543;SDS011;8384;47.996;7.786;2023-02-10T01:02:56;19.07;;;17.17;;
16543;SDS011;8384;47.996;7.786;2023-02-10T01:05:21;18.63;;;16.73;;
16543;SDS011;8384;47.996;7.786;2023-02-10T01:07:46;19.53;;;17.53;;
16543;SDS011;8384;47.996;7.786;2023-02-10T01:10:12;19.93;;;17.93;;
16543;SDS011;8384;47.996;7.786;2023-02-10T01:12:37;20.17;;;18.07;;
16543;SDS011;8384;47.996;7.786;2023-02-10T01:15:02;19.57;;;17.67;;
16543;SDS011;8384;47.996;7.786;2023-02-10T01:17:28;20.63;;;18.63;;
16543;SDS011;8384;47.996;7.786;2023-02-10T01:19:53;22.80;;;19.53;;
16543;SDS011;8384;47.996;7.786;2023-02-10T01:22:19;24.60;;;21.00;;
16543;SDS011;8384;47.996;7.786;2023-02-10T01:24:44;30.43;;;23.40;;
16543;SDS011;8384;47.996;7.786;2023-02-10T01:27:09;23.60;;;20.50;;
16543;SDS011;8384;47.996;7.786;2023-02-10T01:29:34;22.03;;;19.70;;
16543;SDS011;8384;47.996;7.786;2023-02-10T01:32:00;22.20;;;19.77;;
16543;SDS011;8384;47.996;7.786;2023-02-10T01:34:25;22.60;;;20.20;;
16543;SDS011;8384;47.996;7.786;2023-02-10T01:36:51;21.25;;;19.08;;
16543;SDS011;8384;47.996;7.786;2023-02-10T01:39:17;21.42;;;19.25;;
16543;SDS011;8384;47.996;7.786;2023-02-10T01:41:42;21.57;;;19.47;;
16543;SDS011;8384;47.996;7.786;2023-02-10T01:46:45;23.20;;;20.93;;
16543;SDS011;8384;47.996;7.786;2023-02-10T01:49:13;23.73;;;21.40;;
16543;SDS011;8384;47.996;7.786;2023-02-10T01:51:42;23.67;;;21.27;;
16543;SDS011;8384;47.996;7.786;2023-02-10T01:54:15;23.77;;;21.40;;
16543;SDS011;8384;47.996;7.786;2023-02-10T01:56:44;22.55;;;20.27;;
16543;SDS011;8384;47.996;7.786;2023-02-10T01:59:10;21.03;;;18.93;;
16543;SDS011;8384;47.996;7.786;2023-02-10T02:01:37;20.38;;;18.38;;
16543;SDS011;8384;47.996;7.786;2023-02-10T02:04:03;20.63;;;18.57;;
16543;SDS011;8384;47.996;7.786;2023-02-10T02:06:28;20.90;;;18.75;;
16543;SDS011;8384;47.996;7.786;2023-02-10T02:08:54;19.90;;;17.90;;
16543;SDS011;8384;47.996;7.786;2023-02-10T02:11:21;20.55;;;18.45;;
16543;SDS011;8384;47.996;7.786;2023-02-10T02:19:34;20.88;;;18.77;;
16543;SDS011;8384;47.996;7.786;2023-02-10T02:22:08;20.50;;;18.37;;
16543;SDS011;8384;47.996;7.786;2023-02-10T02:24:50;21.50;;;19.40;;
16543;SDS011;8384;47.996;7.786;2023-02-10T02:35:40;25.13;;;22.58;;
16543;SDS011;8384;47.996;7.786;2023-02-10T02:38:27;24.60;;;22.00;;
16543;SDS011;8384;47.996;7.786;2023-02-10T02:40:53;23.67;;;21.27;;
16543;SDS011;8384;47.996;7.786;2023-02-10T02:43:20;28.30;;;25.20;;
16543;SDS011;8384;47.996;7.786;2023-02-10T02:45:53;51.08;;;41.63;;
16543;SDS011;8384;47.996;7.786;2023-02-10T02:50:58;27.67;;;24.60;;
16543;SDS011;8384;47.996;7.786;2023-02-10T02:53:37;30.58;;;26.80;;
16543;SDS011;8384;47.996;7.786;2023-02-10T02:56:14;25.58;;;22.88;;
16543;SDS011;8384;47.996;7.786;2023-02-10T03:01:41;23.77;;;21.27;;
16543;SDS011;8384;47.996;7.786;2023-02-10T03:04:11;24.13;;;21.63;;
16543;SDS011;8384;47.996;7.786;2023-02-10T03:06:40;24.70;;;22.20;;
16543;SDS011;8384;47.996;7.786;2023-02-10T03:09:05;26.27;;;23.57;;
16543;SDS011;8384;47.996;7.786;2023-02-10T03:11:31;26.08;;;23.58;;
16543;SDS011;8384;47.996;7.786;2023-02-10T03:13:56;26.03;;;23.43;;
16543;SDS011;8384;47.996;7.786;2023-02-10T03:16:21;27.60;;;24.90;;
16543;SDS011;8384;47.996;7.786;2023-02-10T03:18:47;26.87;;;24.20;;
16543;SDS011;8384;47.996;7.786;2023-02-10T03:21:12;27.02;;;24.33;;
16543;SDS011;8384;47.996;7.786;2023-02-10T03:23:37;29.20;;;26.17;;
16543;SDS011;8384;47.996;7.786;2023-02-10T03:26:02;30.00;;;26.90;;
16543;SDS011;8384;47.996;7.786;2023-02-10T03:28:28;29.00;;;26.10;;
16543;SDS011;8384;47.996;7.786;2023-02-10T03:30:53;29.03;;;26.10;;
16543;SDS011;8384;47.996;7.786;2023-02-10T03:33:19;34.33;;;30.60;;
16543;SDS011;8384;47.996;7.786;2023-02-10T03:35:45;29.67;;;26.67;;
16543;SDS011;8384;47.996;7.786;2023-02-10T03:38:11;29.35;;;26.55;;
16543;SDS011;8384;47.996;7.786;2023-02-10T03:40:36;28.80;;;25.90;;
16543;SDS011;8384;47.996;7.786;2023-02-10T03:43:02;26.98;;;24.38;;
16543;SDS011;8384;47.996;7.786;2023-02-10T03:45:28;24.35;;;21.95;;
16543;SDS011;8384;47.996;7.786;2023-02-10T03:47:53;25.17;;;22.67;;
16543;SDS011;8384;47.996;7.786;2023-02-10T03:50:19;26.53;;;23.83;;
16543;SDS011;8384;47.996;7.786;2023-02-10T03:52:44;26.73;;;24.08;;
16543;SDS011;8384;47.996;7.786;2023-02-10T03:55:10;26.40;;;23.70;;
16543;SDS011;8384;47.996;7.786;2023-02-10T03:57:39;28.00;;;25.20;;
16543;SDS011;8384;47.996;7.786;2023-02-10T04:00:05;27.88;;;25.08;;
16543;SDS011;8384;47.996;7.786;2023-02-10T04:02:31;27.73;;;24.92;;
16543;SDS011;8384;47.996;7.786;2023-02-10T04:04:56;27.60;;;22.97;;
16543;SDS011;8384;47.996;7.786;2023-02-10T04:07:21;28.93;;;25.93;;
16543;SDS011;8384;47.996;7.786;2023-02-10T04:09:47;30.20;;;27.10;;
16543;SDS011;8384;47.996;7.786;2023-02-10T04:12:12;30.50;;;27.30;;
16543;SDS011;8384;47.996;7.786;2023-02-10T04:14:37;30.15;;;26.95;;
16543;SDS011;8384;47.996;7.786;2023-02-10T04:17:02;29.73;;;26.53;;
16543;SDS011;8384;47.996;7.786;2023-02-10T04:19:28;29.03;;;26.03;;
16543;SDS011;8384;47.996;7.786;2023-02-10T04:21:53;28.63;;;25.73;;
16543;SDS011;8384;47.996;7.786;2023-02-10T04:24:18;28.43;;;25.53;;
16543;SDS011;8384;47.996;7.786;2023-02-10T04:26:43;51.53;;;42.00;;
16543;SDS011;8384;47.996;7.786;2023-02-10T04:29:09;31.17;;;27.83;;
16543;SDS011;8384;47.996;7.786;2023-02-10T04:31:34;28.83;;;25.65;;
16543;SDS011;8384;47.996;7.786;2023-02-10T04:33:59;27.30;;;24.50;;
16543;SDS011;8384;47.996;7.786;2023-02-10T04:36:24;27.50;;;24.60;;
16543;SDS011;8384;47.996;7.786;2023-02-10T04:38:50;28.30;;;24.73;;
16543;SDS011;8384;47.996;7.786;2023-02-10T04:41:15;31.10;;;27.60;;
16543;SDS011;8384;47.996;7.786;2023-02-10T04:43:40;29.83;;;26.60;;
16543;SDS011;8384;47.996;7.786;2023-02-10T04:46:06;29.92;;;26.70;;
16543;SDS011;8384;47.996;7.786;2023-02-10T04:48:31;28.67;;;25.57;;
16543;SDS011;8384;47.996;7.786;2023-02-10T04:50:57;28.42;;;25.38;;
16543;SDS011;8384;47.996;7.786;2023-02-10T04:53:22;28.33;;;25.33;;
16543;SDS011;8384;47.996;7.786;2023-02-10T04:55:48;27.93;;;25.03;;
16543;SDS011;8384;47.996;7.786;2023-02-10T04:58:13;28.17;;;25.25;;
16543;SDS011;8384;47.996;7.786;2023-02-10T05:00:39;28.23;;;25.27;;
16543;SDS011;8384;47.996;7.786;2023-02-10T05:03:04;27.70;;;24.67;;
16543;SDS011;8384;47.996;7.786;2023-02-10T05:05:29;27.90;;;25.00;;
16543;SDS011;8384;47.996;7.786;2023-02-10T05:07:55;28.35;;;25.27;;
16543;SDS011;8384;47.996;7.786;2023-02-10T05:10:20;28.73;;;25.73;;
16543;SDS011;8384;47.996;7.786;2023-02-10T05:12:46;29.50;;;26.47;;
16543;SDS011;8384;47.996;7.786;2023-02-10T05:15:11;28.88;;;25.88;;
16543;SDS011;8384;47.996;7.786;2023-02-10T05:17:38;29.42;;;26.42;;
16543;SDS011;8384;47.996;7.786;2023-02-10T05:20:04;30.42;;;27.25;;
16543;SDS011;8384;47.996;7.786;2023-02-10T05:22:30;30.35;;;27.15;;
16543;SDS011;8384;47.996;7.786;2023-02-10T05:24:56;29.87;;;26.63;;
16543;SDS011;8384;47.996;7.786;2023-02-10T05:27:24;29.95;;;26.75;;
16543;SDS011;8384;47.996;7.786;2023-02-10T05:29:50;28.85;;;25.92;;
16543;SDS011;8384;47.996;7.786;2023-02-10T05:32:15;28.70;;;25.70;;
16543;SDS011;8384;47.996;7.786;2023-02-10T05:34:40;27.40;;;24.50;;
16543;SDS011;8384;47.996;7.786;2023-02-10T05:37:06;29.17;;;25.80;;
16543;SDS011;8384;47.996;7.786;2023-02-10T05:39:31;27.77;;;24.83;;
16543;SDS011;8384;47.996;7.786;2023-02-10T05:41:57;29.03;;;24.87;;
16543;SDS011;8384;47.996;7.786;2023-02-10T05:44:24;26.15;;;23.38;;
16543;SDS011;8384;47.996;7.786;2023-02-10T05:46:51;27.35;;;24.45;;
16543;SDS011;8384;47.996;7.786;2023-02-10T05:49:16;27.70;;;24.80;;
16543;SDS011;8384;47.996;7.786;2023-02-10T05:51:42;27.92;;;25.00;;
16543;SDS011;8384;47.996;7.786;2023-02-10T05:54:08;27.57;;;24.80;;
16543;SDS011;8384;47.996;7.786;2023-02-10T05:56:33;28.88;;;25.55;;
16543;SDS011;8384;47.996;7.786;2023-02-10T05:58:59;29.03;;;26.03;;
16543;SDS011;8384;47.996;7.786;2023-02-10T06:01:24;27.90;;;24.90;;
16543;SDS011;8384;47.996;7.786;2023-02-10T06:03:49;27.77;;;24.97;;
16543;SDS011;8384;47.996;7.786;2023-02-10T06:06:15;28.98;;;25.98;;
16543;SDS011;8384;47.996;7.786;2023-02-10T06:08:40;28.50;;;25.50;;
16543;SDS011;8384;47.996;7.786;2023-02-10T06:11:05;27.63;;;24.80;;
16543;SDS011;8384;47.996;7.786;2023-02-10T06:13:31;28.93;;;25.90;;
16543;SDS011;8384;47.996;7.786;2023-02-10T06:15:56;29.92;;;26.08;;
16543;SDS011;8384;47.996;7.786;2023-02-10T06:18:21;28.53;;;25.63;;
16543;SDS011;8384;47.996;7.786;2023-02-10T06:20:47;28.37;;;25.33;;
16543;SDS011;8384;47.996;7.786;2023-02-10T06:23:13;30.00;;;26.77;;
16543;SDS011;8384;47.996;7.786;2023-02-10T06:25:39;30.50;;;27.23;;
16543;SDS011;8384;47.996;7.786;2023-02-10T06:28:04;28.73;;;25.70;;
16543;SDS011;8384;47.996;7.786;2023-02-10T06:30:29;27.53;;;24.63;;
16543;SDS011;8384;47.996;7.786;2023-02-10T06:32:55;26.58;;;23.88;;
16543;SDS011;8384;47.996;7.786;2023-02-10T06:35:20;28.13;;;25.10;;
16543;SDS011;8384;47.996;7.786;2023-02-10T06:37:46;28.67;;;25.60;;
16543;SDS011;8384;47.996;7.786;2023-02-10T06:40:11;29.53;;;26.37;;
16543;SDS011;8384;47.996;7.786;2023-02-10T06:42:37;30.00;;;26.83;;
16543;SDS011;8384;47.996;7.786;2023-02-10T06:45:03;33.40;;;28.27;;
16543;SDS011;8384;47.996;7.786;2023-02-10T06:47:28;30.35;;;27.13;;
16543;SDS011;8384;47.996;7.786;2023-02-10T06:49:53;29.13;;;26.10;;
16543;SDS011;8384;47.996;7.786;2023-02-10T06:52:19;30.95;;;26.95;;
16543;SDS011;8384;47.996;7.786;2023-02-10T06:54:44;28.60;;;25.57;;
16543;SDS011;8384;47.996;7.786;2023-02-10T06:57:09;30.13;;;26.93;;
16543;SDS011;8384;47.996;7.786;2023-02-10T06:59:35;27.77;;;24.73;;
16543;SDS011;8384;47.996;7.786;2023-02-10T07:02:00;29.15;;;26.05;;
16543;SDS011;8384;47.996;7.786;2023-02-10T07:04:27;29.60;;;26.50;;
16543;SDS011;8384;47.996;7.786;2023-02-10T07:06:53;30.65;;;27.35;;
16543;SDS011;8384;47.996;7.786;2023-02-10T07:09:18;31.33;;;28.13;;
16543;SDS011;8384;47.996;7.786;2023-02-10T07:11:44;28.03;;;25.10;;
16543;SDS011;8384;47.996;7.786;2023-02-10T07:14:09;27.23;;;24.33;;
16543;SDS011;8384;47.996;7.786;2023-02-10T07:16:34;29.17;;;25.97;;
16543;SDS011;8384;47.996;7.786;2023-02-10T07:18:59;28.03;;;25.03;;
16543;SDS011;8384;47.996;7.786;2023-02-10T07:21:25;29.20;;;25.77;;
16543;SDS011;8384;47.996;7.786;2023-02-10T07:23:50;28.07;;;25.17;;
16543;SDS011;8384;47.996;7.786;2023-02-10T07:26:15;28.77;;;25.67;;
16543;SDS011;8384;47.996;7.786;2023-02-10T07:28:43;28.88;;;25.90;;
16543;SDS011;8384;47.996;7.786;2023-02-10T07:31:09;28.73;;;25.83;;
16543;SDS011;8384;47.996;7.786;2023-02-10T07:33:34;31.17;;;27.77;;
16543;SDS011;8384;47.996;7.786;2023-02-10T07:35:59;30.20;;;27.10;;
16543;SDS011;8384;47.996;7.786;2023-02-10T07:38:26;29.83;;;26.83;;
16543;SDS011;8384;47.996;7.786;2023-02-10T07:40:51;31.63;;;28.53;;
16543;SDS011;8384;47.996;7.786;2023-02-10T07:43:16;40.63;;;36.67;;
16543;SDS011;8384;47.996;7.786;2023-02-10T07:45:41;33.80;;;30.47;;
16543;SDS011;8384;47.996;7.786;2023-02-10T07:48:07;30.53;;;27.53;;
16543;SDS011;8384;47.996;7.786;2023-02-10T07:50:32;31.10;;;27.60;;
16543;SDS011;8384;47.996;7.786;2023-02-10T07:52:57;29.67;;;26.47;;
16543;SDS011;8384;47.996;7.786;2023-02-10T07:55:23;28.13;;;25.30;;
16543;SDS011;8384;47.996;7.786;2023-02-10T07:57:48;30.13;;;27.03;;
16543;SDS011;8384;47.996;7.786;2023-02-10T08:00:13;27.93;;;25.03;;
16543;SDS011;8384;47.996;7.786;2023-02-10T08:02:39;28.70;;;25.90;;
16543;SDS011;8384;47.996;7.786;2023-02-10T08:05:05;27.70;;;25.10;;
16543;SDS011;8384;47.996;7.786;2023-02-10T08:07:31;28.48;;;25.70;;
16543;SDS011;8384;47.996;7.786;2023-02-10T08:09:56;26.80;;;24.20;;
16543;SDS011;8384;47.996;7.786;2023-02-10T08:12:21;27.70;;;24.90;;
16543;SDS011;8384;47.996;7.786;2023-02-10T08:14:47;27.23;;;24.52;;
16543;SDS011;8384;47.996;7.786;2023-02-10T08:17:12;27.50;;;24.70;;
16543;SDS011;8384;47.996;7.786;2023-02-10T08:19:37;26.97;;;24.27;;
16543;SDS011;8384;47.996;7.786;2023-02-10T08:22:03;26.00;;;23.37;;
16543;SDS011;8384;47.996;7.786;2023-02-10T08:24:29;28.30;;;25.50;;
16543;SDS011;8384;47.996;7.786;2023-02-10T08:26:55;29.83;;;26.73;;
16543;SDS011;8384;47.996;7.786;2023-02-10T08:29:21;30.52;;;27.45;;
16543;SDS011;8384;47.996;7.786;2023-02-10T08:31:48;30.00;;;26.83;;
16543;SDS011;8384;47.996;7.786;2023-02-10T08:34:15;30.65;;;27.55;;
16543;SDS011;8384;47.996;7.786;2023-02-10T08:36:42;28.80;;;25.95;;
16543;SDS011;8384;47.996;7.786;2023-02-10T08:39:08;29.25;;;26.35;;
16543;SDS011;8384;47.996;7.786;2023-02-10T08:41:34;29.40;;;26.50;;
16543;SDS011;8384;47.996;7.786;2023-02-10T08:44:00;30.50;;;27.27;;
16543;SDS011;8384;47.996;7.786;2023-02-10T08:46:25;30.00;;;27.00;;
16543;SDS011;8384;47.996;7.786;2023-02-10T08:48:50;29.03;;;25.93;;
16543;SDS011;8384;47.996;7.786;2023-02-10T08:51:16;25.10;;;22.43;;
16543;SDS011;8384;47.996;7.786;2023-02-10T08:53:41;25.23;;;22.77;;
16543;SDS011;8384;47.996;7.786;2023-02-10T08:56:07;26.40;;;23.73;;
16543;SDS011;8384;47.996;7.786;2023-02-10T08:58:35;28.13;;;25.23;;
16543;SDS011;8384;47.996;7.786;2023-02-10T09:01:00;28.08;;;25.38;;
16543;SDS011;8384;47.996;7.786;2023-02-10T09:03:27;27.70;;;24.85;;
16543;SDS011;8384;47.996;7.786;2023-02-10T09:05:53;28.45;;;25.55;;
16543;SDS011;8384;47.996;7.786;2023-02-10T09:08:19;28.25;;;25.45;;
16543;SDS011;8384;47.996;7.786;2023-02-10T09:10:45;28.03;;;25.23;;
16543;SDS011;8384;47.996;7.786;2023-02-10T09:13:11;28.05;;;25.15;;
16543;SDS011;8384;47.996;7.786;2023-02-10T09:15:37;27.83;;;25.03;;
16543;SDS011;8384;47.996;7.786;2023-02-10T09:18:04;28.33;;;25.52;;
16543;SDS011;8384;47.996;7.786;2023-02-10T09:20:31;27.65;;;24.92;;
16543;SDS011;8384;47.996;7.786;2023-02-10T09:22:56;28.10;;;25.30;;
16543;SDS011;8384;47.996;7.786;2023-02-10T09:25:21;27.97;;;25.27;;
16543;SDS011;8384;47.996;7.786;2023-02-10T09:27:47;28.23;;;25.27;;
16543;SDS011;8384;47.996;7.786;2023-02-10T09:30:12;33.15;;;29.75;;
16543;SDS011;8384;47.996;7.786;2023-02-10T09:32:37;34.20;;;30.77;;
16543;SDS011;8384;47.996;7.786;2023-02-10T09:35:03;33.10;;;29.60;;
16543;SDS011;8384;47.996;7.786;2023-02-10T09:37:28;35.03;;;31.43;;
16543;SDS011;8384;47.996;7.786;2023-02-10T09:39:54;34.33;;;30.83;;
16543;SDS011;8384;47.996;7.786;2023-02-10T09:44:59;33.90;;;30.60;;
16543;SDS011;8384;47.996;7.786;2023-02-10T09:53:12;34.70;;;31.20;;
16543;SDS011;8384;47.996;7.786;2023-02-10T09:55:46;36.38;;;32.78;;
16543;SDS011;8384;47.996;7.786;2023-02-10T09:58:24;36.58;;;33.08;;
16543;SDS011;8384;47.996;7.786;2023-02-10T10:04:04;35.42;;;32.03;;
16543;SDS011;8384;47.996;7.786;2023-02-10T10:06:37;35.28;;;31.67;;
16543;SDS011;8384;47.996;7.786;2023-02-10T10:11:36;35.90;;;32.53;;
16543;SDS011;8384;47.996;7.786;2023-02-10T10:14:03;34.90;;;31.50;;
16543;SDS011;8384;47.996;7.786;2023-02-10T10:16:42;34.37;;;31.03;;
16543;SDS011;8384;47.996;7.786;2023-02-10T10:28:29;34.38;;;31.02;;
16543;SDS011;8384;47.996;7.786;2023-02-10T10:30:58;34.70;;;31.40;;
16543;SDS011;8384;47.996;7.786;2023-02-10T10:36:06;32.87;;;29.57;;
16543;SDS011;8384;47.996;7.786;2023-02-10T10:38:40;32.60;;;29.50;;
16543;SDS011;8384;47.996;7.786;2023-02-10T10:41:11;32.77;;;29.63;;
16543;SDS011;8384;47.996;7.786;2023-02-10T10:43:45;32.78;;;29.67;;
16543;SDS011;8384;47.996;7.786;2023-02-10T10:46:20;36.80;;;33.28;;
16543;SDS011;8384;47.996;7.786;2023-02-10T10:48:46;38.53;;;34.72;;
16543;SDS011;8384;47.996;7.786;2023-02-10T10:51:12;38.07;;;34.27;;
16543;SDS011;8384;47.996;7.786;2023-02-10T10:53:40;38.22;;;34.55;;
16543;SDS011;8384;47.996;7.786;2023-02-10T10:56:11;38.05;;;34.22;;
16543;SDS011;8384;47.996;7.786;2023-02-10T10:58:43;36.97;;;33.38;;
16543;SDS011;8384;47.996;7.786;2023-02-10T11:01:10;37.20;;;33.47;;
16543;SDS011;8384;47.996;7.786;2023-02-10T11:03:37;35.97;;;32.28;;
16543;SDS011;8384;47.996;7.786;2023-02-10T11:06:13;35.53;;;32.22;;
16543;SDS011;8384;47.996;7.786;2023-02-10T11:09:00;34.92;;;31.42;;
16543;SDS011;8384;47.996;7.786;2023-02-10T11:11:31;34.88;;;31.38;;
16543;SDS011;8384;47.996;7.786;2023-02-10T11:13:58;36.42;;;32.83;;
16543;SDS011;8384;47.996;7.786;2023-02-10T11:16:24;35.87;;;32.37;;
16543;SDS011;8384;47.996;7.786;2023-02-10T11:18:53;35.83;;;32.33;;
16543;SDS011;8384;47.996;7.786;2023-02-10T11:21:20;35.60;;;32.10;;
16543;SDS011;8384;47.996;7.786;2023-02-10T11:23:50;35.85;;;32.33;;
16543;SDS011;8384;47.996;7.786;2023-02-10T11:26:20;35.20;;;31.88;;
16543;SDS011;8384;47.996;7.786;2023-02-10T11:28:47;35.80;;;32.35;;
16543;SDS011;8384;47.996;7.786;2023-02-10T11:31:20;33.97;;;30.67;;
16543;SDS011;8384;47.996;7.786;2023-02-10T11:33:54;35.47;;;32.03;;
16543;SDS011;8384;47.996;7.786;2023-02-10T11:36:28;35.95;;;32.45;;
16543;SDS011;8384;47.996;7.786;2023-02-10T11:38:59;35.10;;;31.77;;
16543;SDS011;8384;47.996;7.786;2023-02-10T11:41:30;34.63;;;31.33;;
16543;SDS011;8384;47.996;7.786;2023-02-10T11:43:56;34.53;;;31.20;;
16543;SDS011;8384;47.996;7.786;2023-02-10T11:46:23;34.83;;;31.53;;
16543;SDS011;8384;47.996;7.786;2023-02-10T11:48:54;34.92;;;31.63;;
16543;SDS011;8384;47.996;7.786;2023-02-10T11:51:27;34.47;;;31.30;;
16543;SDS011;8384;47.996;7.786;2023-02-10T11:53:53;34.00;;;30.70;;
16543;SDS011;8384;47.996;7.786;2023-02-10T11:59:11;34.75;;;31.45;;
16543;SDS011;8384;47.996;7.786;2023-02-10T12:02:00;35.38;;;32.05;;
16543;SDS011;8384;47.996;7.786;2023-02-10T12:04:41;36.03;;;32.63;;
16543;SDS011;8384;47.996;7.786;2023-02-10T12:10:09;35.33;;;32.05;;
16543;SDS011;8384;47.996;7.786;2023-02-10T12:15:14;36.70;;;33.20;;
16543;SDS011;8384;47.996;7.786;2023-02-10T12:20:29;36.45;;;32.95;;
16543;SDS011;8384;47.996;7.786;2023-02-10T12:23:25;36.50;;;32.90;;
16543;SDS011;8384;47.996;7.786;2023-02-10T12:34:15;35.73;;;32.27;;
16543;SDS011;8384;47.996;7.786;2023-02-10T12:40:18;35.23;;;31.77;;
16543;SDS011;8384;47.996;7.786;2023-02-10T12:45:52;34.60;;;31.35;;
16543;SDS011;8384;47.996;7.786;2023-02-10T12:54:22;34.38;;;31.15;;
16543;SDS011;8384;47.996;7.786;2023-02-10T12:56:57;33.80;;;30.42;;
16543;SDS011;8384;47.996;7.786;2023-02-10T13:00:14;33.33;;;30.13;;
16543;SDS011;8384;47.996;7.786;2023-02-10T13:02:36;31.52;;;28.42;;
16543;SDS011;8384;47.996;7.786;2023-02-10T13:05:07;33.50;;;30.30;;
16543;SDS011;8384;47.996;7.786;2023-02-10T13:07:39;33.88;;;30.65;;
16543;SDS011;8384;47.996;7.786;2023-02-10T13:12:45;32.10;;;29.02;;
16543;SDS011;8384;47.996;7.786;2023-02-10T13:15:18;32.10;;;29.10;;
16543;SDS011;8384;47.996;7.786;2023-02-10T13:17:49;31.10;;;28.10;;
16543;SDS011;8384;47.996;7.786;2023-02-10T13:20:22;29.95;;;27.13;;
16543;SDS011;8384;47.996;7.786;2023-02-10T13:22:50;29.38;;;26.58;;
16543;SDS011;8384;47.996;7.786;2023-02-10T13:25:30;30.85;;;27.88;;
16543;SDS011;8384;47.996;7.786;2023-02-10T13:28:17;29.60;;;26.58;;
16543;SDS011;8384;47.996;7.786;2023-02-10T13:30:53;29.50;;;26.60;;
16543;SDS011;8384;47.996;7.786;2023-02-10T13:36:26;30.00;;;27.10;;
16543;SDS011;8384;47.996;7.786;2023-02-10T13:39:26;29.45;;;26.65;;
16543;SDS011;8384;47.996;7.786;2023-02-10T13:41:47;28.67;;;25.88;;
16543;SDS011;8384;47.996;7.786;2023-02-10T13:44:31;30.48;;;27.48;;
16543;SDS011;8384;47.996;7.786;2023-02-10T13:49:33;31.67;;;28.63;;
16543;SDS011;8384;47.996;7.786;2023-02-10T13:52:03;30.65;;;27.65;;
16543;SDS011;8384;47.996;7.786;2023-02-10T13:54:37;30.33;;;27.23;;
16543;SDS011;8384;47.996;7.786;2023-02-10T13:57:03;29.20;;;26.47;;
16543;SDS011;8384;47.996;7.786;2023-02-10T13:59:35;28.90;;;26.10;;
16543;SDS011;8384;47.996;7.786;2023-02-10T14:02:22;27.20;;;24.70;;
16543;SDS011;8384;47.996;7.786;2023-02-10T14:04:49;26.73;;;24.13;;
16543;SDS011;8384;47.996;7.786;2023-02-10T14:13:56;25.02;;;22.60;;
16543;SDS011;8384;47.996;7.786;2023-02-10T14:15:59;25.88;;;23.35;;
16543;SDS011;8384;47.996;7.786;2023-02-10T14:18:27;25.98;;;23.38;;
16543;SDS011;8384;47.996;7.786;2023-02-10T14:20:57;25.25;;;22.67;;
16543;SDS011;8384;47.996;7.786;2023-02-10T14:24:05;26.75;;;24.10;;
16543;SDS011;8384;47.996;7.786;2023-02-10T14:26:34;28.38;;;25.67;;
16543;SDS011;8384;47.996;7.786;2023-02-10T14:29:00;31.30;;;28.30;;
16543;SDS011;8384;47.996;7.786;2023-02-10T14:31:27;32.50;;;29.40;;
16543;SDS011;8384;47.996;7.786;2023-02-10T14:33:57;34.08;;;30.77;;
16543;SDS011;8384;47.996;7.786;2023-02-10T14:36:25;34.80;;;31.50;;
16543;SDS011;8384;47.996;7.786;2023-02-10T14:38:56;34.05;;;30.85;;
16543;SDS011;8384;47.996;7.786;2023-02-10T14:41:23;34.78;;;31.50;;
16543;SDS011;8384;47.996;7.786;2023-02-10T14:43:51;34.88;;;31.35;;
16543;SDS011;8384;47.996;7.786;2023-02-10T14:46:21;33.77;;;30.57;;
16543;SDS011;8384;47.996;7.786;2023-02-10T14:48:50;34.55;;;31.33;;
16543;SDS011;8384;47.996;7.786;2023-02-10T14:51:23;34.67;;;31.38;;
16543;SDS011;8384;47.996;7.786;2023-02-10T14:53:51;34.58;;;31.35;;
16543;SDS011;8384;47.996;7.786;2023-02-10T14:56:24;33.30;;;30.13;;
16543;SDS011;8384;47.996;7.786;2023-02-10T14:58:51;35.15;;;31.95;;
16543;SDS011;8384;47.996;7.786;2023-02-10T15:01:29;35.88;;;32.50;;
16543;SDS011;8384;47.996;7.786;2023-02-10T15:03:58;36.88;;;33.45;;
16543;SDS011;8384;47.996;7.786;2023-02-10T15:06:32;37.73;;;34.03;;
16543;SDS011;8384;47.996;7.786;2023-02-10T15:09:05;36.28;;;32.97;;
16543;SDS011;8384;47.996;7.786;2023-02-10T15:11:40;37.10;;;33.55;;
16543;SDS011;8384;47.996;7.786;2023-02-10T15:14:33;37.85;;;34.17;;
16543;SDS011;8384;47.996;7.786;2023-02-10T15:17:02;37.63;;;33.92;;
16543;SDS011;8384;47.996;7.786;2023-02-10T15:19:30;38.13;;;34.53;;
16543;SDS011;8384;47.996;7.786;2023-02-10T15:21:56;35.93;;;32.53;;
16543;SDS011;8384;47.996;7.786;2023-02-10T15:24:28;37.53;;;34.13;;
16543;SDS011;8384;47.996;7.786;2023-02-10T15:27:15;36.90;;;33.50;;
16543;SDS011;8384;47.996;7.786;2023-02-10T15:29:41;37.30;;;33.88;;
16543;SDS011;8384;47.996;7.786;2023-02-10T15:32:15;36.50;;;33.10;;
16543;SDS011;8384;47.996;7.786;2023-02-10T15:34:45;36.60;;;33.15;;
16543;SDS011;8384;47.996;7.786;2023-02-10T15:37:17;37.27;;;33.70;;
16543;SDS011;8384;47.996;7.786;2023-02-10T15:39:55;35.63;;;32.22;;
16543;SDS011;8384;47.996;7.786;2023-02-10T15:42:22;34.25;;;31.05;;
16543;SDS011;8384;47.996;7.786;2023-02-10T15:44:59;36.17;;;32.78;;
16543;SDS011;8384;47.996;7.786;2023-02-10T15:47:36;35.63;;;32.28;;
16543;SDS011;8384;47.996;7.786;2023-02-10T15:50:08;34.88;;;31.58;;
16543;SDS011;8384;47.996;7.786;2023-02-10T15:52:39;32.67;;;29.73;;
16543;SDS011;8384;47.996;7.786;2023-02-10T15:55:29;32.42;;;29.35;;
16543;SDS011;8384;47.996;7.786;2023-02-10T15:57:56;34.33;;;31.02;;
16543;SDS011;8384;47.996;7.786;2023-02-10T16:00:29;34.03;;;30.80;;
16543;SDS011;8384;47.996;7.786;2023-02-10T16:02:57;35.33;;;32.13;;
16543;SDS011;8384;47.996;7.786;2023-02-10T16:05:23;33.55;;;30.38;;
16543;SDS011;8384;47.996;7.786;2023-02-10T16:07:49;33.05;;;29.95;;
16543;SDS011;8384;47.996;7.786;2023-02-10T16:10:23;34.83;;;31.52;;
16543;SDS011;8384;47.996;7.786;2023-02-10T16:12:50;34.67;;;31.42;;
16543;SDS011;8384;47.996;7.786;2023-02-10T16:15:16;35.22;;;32.05;;